Time;durP1;ratioP1;P1;durP2;ratioP2;P2;SDS_P1;SDS_P2;PMS_P1;PMS_P2;Temp;Humidity;BMP_temperature;BMP_pressure;BME280_temperature;BME280_humidity;BME280_pressure;Samples;Min_cycle;Max_cycle;Signal;HPM_P1;HPM_P2
2022/05/09 00:00:17;;;;;;;1.83;0.67;;;5.60;99.90;4.80;101778;;;;574851;245;24162;-75
2022/05/09 00:02:45;;;;;;;2.57;0.70;;;5.70;99.90;4.80;101777;;;;566156;250;24097;-76
2022/05/09 00:05:16;;;;;;;1.20;0.70;;;5.70;99.90;4.80;101779;;;;584327;244;24086;-77
2022/05/09 00:07:48;;;;;;;4.33;1.03;;;5.60;99.90;4.70;101774;;;;566433;250;24130;-77
2022/05/09 00:10:12;;;;;;;2.07;0.70;;;5.60;99.90;4.70;101769;;;;575872;245;24098;-76
2022/05/09 00:12:43;;;;;;;1.90;0.93;;;5.50;99.90;4.60;101778;;;;566378;250;24083;-77
2022/05/09 00:15:08;;;;;;;2.63;0.93;;;5.50;99.90;4.60;101784;;;;576572;245;24071;-77
2022/05/09 00:17:46;;;;;;;1.37;0.63;;;5.50;99.90;4.60;101783;;;;585948;243;24088;-80
2022/05/09 00:20:04;;;;;;;0.80;0.70;;;5.50;99.90;4.60;101789;;;;577540;245;24079;-80
2022/05/09 00:22:32;;;;;;;1.70;1.10;;;5.50;99.90;4.60;101787;;;;577201;245;24079;-79
2022/05/09 00:25:03;;;;;;;3.20;0.87;;;5.40;99.90;4.60;101782;;;;576455;245;24112;-76
2022/05/09 00:27:28;;;;;;;2.73;0.83;;;5.50;99.90;4.60;101787;;;;580612;245;24082;-78
2022/05/09 00:29:57;;;;;;;2.30;0.70;;;5.40;99.90;4.50;101785;;;;576352;245;24076;-77
2022/05/09 00:32:24;;;;;;;3.83;0.70;;;5.40;99.90;4.50;101786;;;;576172;245;24080;-77
2022/05/09 00:34:52;;;;;;;2.37;0.80;;;5.40;99.90;4.50;101788;;;;566569;248;24074;-77
2022/05/09 00:37:20;;;;;;;3.10;0.60;;;5.30;99.90;4.40;101795;;;;576023;245;25142;-76
2022/05/09 00:39:48;;;;;;;3.27;0.80;;;5.30;99.90;4.40;101788;;;;576083;245;25124;-75
2022/05/09 00:42:16;;;;;;;3.97;1.03;;;5.30;99.90;4.40;101783;;;;566622;250;24078;-75
2022/05/09 00:44:44;;;;;;;0.70;0.70;;;5.30;99.90;4.40;101786;;;;576182;245;24091;-79
2022/05/09 00:47:12;;;;;;;1.37;1.00;;;5.30;99.90;4.40;101788;;;;584516;245;24074;-75
2022/05/09 00:49:47;;;;;;;2.63;0.90;;;5.30;99.90;4.40;101789;;;;575766;245;24062;-76
2022/05/09 00:52:32;;;;;;;5.20;1.10;;;5.20;99.90;4.30;101799;;;;574098;250;24136;-76
2022/05/09 00:55:06;;;;;;;3.13;1.20;;;5.20;99.90;4.30;101793;;;;575489;245;24080;-75
2022/05/09 00:57:39;;;;;;;1.17;0.77;;;5.20;99.90;4.30;101790;;;;558967;255;24159;-76
2022/05/09 01:00:10;;;;;;;3.77;0.80;;;5.20;99.90;4.30;101797;;;;573761;245;24069;-75
2022/05/09 01:02:39;;;;;;;3.17;1.00;;;5.20;99.90;4.30;101805;;;;566079;249;24097;-76
2022/05/09 01:05:07;;;;;;;3.03;0.80;;;5.10;99.90;4.30;101803;;;;579780;243;24085;-76
2022/05/09 01:07:35;;;;;;;3.63;0.90;;;5.10;99.90;4.30;101803;;;;566032;250;24131;-77
2022/05/09 01:10:06;;;;;;;1.03;0.80;;;5.20;99.90;4.30;101809;;;;575898;245;24187;-76
2022/05/09 01:12:30;;;;;;;0.87;0.67;;;5.20;99.90;4.30;101808;;;;566194;250;24078;-76
2022/05/09 01:14:58;;;;;;;2.57;1.00;;;5.20;99.90;4.30;101805;;;;580318;245;24078;-78
2022/05/09 01:17:26;;;;;;;1.97;0.80;;;5.20;99.90;4.30;101804;;;;574527;249;24155;-75
2022/05/09 01:19:55;;;;;;;1.10;0.83;;;5.20;99.90;4.30;101804;;;;575962;245;24151;-74
2022/05/09 01:22:27;;;;;;;1.83;0.90;;;5.20;99.90;4.30;101806;;;;566591;250;24121;-75
2022/05/09 01:25:00;;;;;;;2.97;1.00;;;5.20;99.90;4.30;101812;;;;576036;245;24132;-75
2022/05/09 01:27:24;;;;;;;4.27;1.10;;;5.20;99.90;4.30;101805;;;;585786;243;24075;-76
2022/05/09 01:30:22;;;;;;;1.60;0.90;;;5.20;99.90;4.30;101815;;;;586154;245;24128;-78
2022/05/09 01:33:06;;;;;;;1.50;0.80;;;5.10;99.90;4.30;101821;;;;585817;243;24069;-75
2022/05/09 01:35:52;;;;;;;0.50;0.50;;;5.10;99.90;4.30;101820;;;;567144;250;24075;-76
2022/05/09 01:38:44;;;;;;;4.70;0.93;;;5.20;99.90;4.30;101819;;;;576562;245;24063;-76
2022/05/09 01:41:12;;;;;;;1.20;1.10;;;5.10;99.90;4.30;101815;;;;567028;248;24102;-76
2022/05/09 01:43:40;;;;;;;3.47;1.20;;;5.20;99.90;4.30;101823;;;;576466;245;24068;-77
2022/05/09 01:46:08;;;;;;;1.37;0.80;;;5.20;99.90;4.30;101817;;;;580581;245;24074;-76
2022/05/09 01:51:23;;;;;;;1.10;0.50;;;5.20;99.90;4.40;101813;;;;585080;245;24093;-76
2022/05/09 01:53:53;;;;;;;2.50;0.87;;;5.20;99.90;4.40;101818;;;;576304;245;24110;-76
2022/05/09 01:56:21;;;;;;;3.30;0.60;;;5.20;99.90;4.40;101811;;;;566691;250;24117;-76
2022/05/09 01:58:49;;;;;;;2.83;1.00;;;5.20;99.90;4.40;101819;;;;568461;249;24129;-77
2022/05/09 02:01:18;;;;;;;0.87;0.73;;;5.20;99.90;4.40;101825;;;;575342;247;24068;-72
2022/05/09 02:03:46;;;;;;;5.00;0.60;;;5.30;99.90;4.40;101811;;;;575922;245;24124;-75
2022/05/09 02:06:17;;;;;;;6.13;0.50;;;5.30;99.90;4.40;101815;;;;575104;249;24071;-76
2022/05/09 02:08:42;;;;;;;4.27;0.80;;;5.30;99.90;4.40;101815;;;;580878;245;24077;-76
2022/05/09 02:11:14;;;;;;;3.60;0.80;;;5.30;99.90;4.40;101801;;;;574718;249;24092;-76
2022/05/09 02:13:37;;;;;;;2.60;0.70;;;5.30;99.90;4.40;101811;;;;575442;245;24079;-77
2022/05/09 02:16:09;;;;;;;10.80;1.37;;;5.20;99.90;4.40;101813;;;;584347;245;24066;-78
2022/05/09 02:18:37;;;;;;;0.80;0.77;;;5.20;99.90;4.30;101810;;;;566185;250;24162;-77
2022/05/09 02:21:02;;;;;;;3.40;0.57;;;5.20;99.90;4.20;101815;;;;584430;243;24090;-76
2022/05/09 02:23:33;;;;;;;1.80;0.87;;;5.10;99.90;4.10;101808;;;;575607;245;24096;-81
2022/05/09 02:25:58;;;;;;;2.10;0.60;;;5.00;99.90;4.00;101812;;;;574468;250;24137;-78
2022/05/09 02:28:26;;;;;;;1.80;0.60;;;5.00;99.90;4.00;101813;;;;575915;245;24082;-78
2022/05/09 02:30:57;;;;;;;0.53;0.53;;;4.90;99.90;4.00;101826;;;;575248;249;24096;-76
2022/05/09 02:33:21;;;;;;;2.93;0.90;;;4.90;99.90;4.00;101827;;;;584342;243;24092;-76
2022/05/09 02:35:49;;;;;;;1.23;0.70;;;4.90;99.90;4.00;101820;;;;566704;250;24065;-81
2022/05/09 02:38:17;;;;;;;2.10;0.90;;;4.90;99.90;4.00;101823;;;;586109;243;24088;-83
2022/05/09 02:40:45;;;;;;;2.70;0.90;;;4.80;99.90;4.00;101830;;;;576559;248;24068;-79
2022/05/09 02:43:13;;;;;;;5.23;1.00;;;4.80;99.90;4.00;101827;;;;585917;245;24112;-82
2022/05/09 02:45:41;;;;;;;4.43;0.80;;;4.80;99.90;3.90;101836;;;;560894;250;24163;-81
2022/05/09 02:48:12;;;;;;;1.20;1.10;;;4.80;99.90;3.90;101832;;;;575571;245;24072;-77
2022/05/09 02:50:40;;;;;;;0.97;0.50;;;4.80;99.90;3.80;101827;;;;558598;255;24197;-82
2022/05/09 02:53:07;;;;;;;1.00;0.50;;;4.70;99.90;3.70;101826;;;;576768;245;24073;-83
2022/05/09 02:55:33;;;;;;;5.03;1.00;;;4.60;99.90;3.70;101834;;;;567549;250;24135;-76
2022/05/09 02:58:01;;;;;;;3.60;1.57;;;4.60;99.90;3.70;101843;;;;576853;245;24105;-82
2022/05/09 03:00:32;;;;;;;1.43;0.87;;;4.60;99.90;3.70;101847;;;;576659;245;25122;-82
2022/05/09 03:05:45;;;;;;;1.70;0.77;;;4.60;99.90;3.60;101851;;;;562547;253;24142;-80
2022/05/09 03:08:17;;;;;;;3.93;1.43;;;4.60;99.90;3.70;101846;;;;577244;245;24182;-77
2022/05/09 03:10:42;;;;;;;3.97;1.00;;;4.60;99.90;3.70;101848;;;;576994;245;24083;-76
2022/05/09 03:13:14;;;;;;;1.10;1.00;;;4.60;99.90;3.80;101852;;;;585783;245;24070;-80
2022/05/09 03:15:42;;;;;;;1.20;1.03;;;4.70;99.90;3.80;101855;;;;562406;249;24109;-79
2022/05/09 03:18:09;;;;;;;1.40;1.00;;;4.70;99.90;3.80;101845;;;;576531;245;24140;-81
2022/05/09 03:20:37;;;;;;;5.80;1.17;;;4.70;99.90;3.90;101861;;;;563125;250;24120;-82
2022/05/09 03:23:02;;;;;;;5.47;0.57;;;4.80;99.90;3.90;101858;;;;585075;245;24133;-81
2022/05/09 03:25:30;;;;;;;0.90;0.70;;;4.80;99.90;3.90;101865;;;;566794;250;24076;-82
2022/05/09 03:27:58;;;;;;;1.30;0.87;;;4.80;99.90;4.00;101861;;;;576029;245;24066;-82
2022/05/09 03:30:26;;;;;;;1.30;1.07;;;4.90;99.90;4.00;101857;;;;584685;245;24116;-82
2022/05/09 03:32:54;;;;;;;1.40;1.13;;;4.90;99.90;4.10;101869;;;;566497;250;24145;-78
2022/05/09 03:35:25;;;;;;;3.87;1.60;;;5.00;99.90;4.20;101864;;;;575813;245;24078;-77
2022/05/09 03:37:53;;;;;;;2.70;1.10;;;5.00;99.90;4.20;101878;;;;566287;250;24118;-79
2022/05/09 03:40:18;;;;;;;1.27;1.17;;;5.10;99.90;4.30;101863;;;;575365;245;24074;-82
2022/05/09 03:42:49;;;;;;;5.80;0.90;;;5.20;99.90;4.40;101877;;;;566326;250;24122;-82
2022/05/09 03:45:17;;;;;;;1.63;1.03;;;5.30;99.90;4.50;101874;;;;575884;245;24164;-82
2022/05/09 03:47:42;;;;;;;1.00;0.80;;;5.40;99.90;4.60;101881;;;;584718;243;24076;-81
2022/05/09 03:50:10;;;;;;;5.10;1.50;;;5.50;99.90;5.50;101878;;;;576764;245;24072;-77
2022/05/09 03:52:38;;;;;;;3.93;1.37;;;7.00;99.90;6.30;101886;;;;576196;249;24074;-77
2022/05/09 03:55:06;;;;;;;2.03;1.50;;;7.10;99.90;6.50;101896;;;;576692;245;24076;-77
2022/05/09 03:57:34;;;;;;;1.50;1.37;;;7.40;99.90;6.60;101895;;;;567288;249;24083;-76
2022/05/09 04:00:02;;;;;;;2.20;1.00;;;7.50;99.90;7.40;101887;;;;585391;245;24102;-76
2022/05/09 04:02:31;;;;;;;4.13;1.50;;;9.40;99.90;8.80;101899;;;;580633;245;24063;-77
2022/05/09 04:04:59;;;;;;;4.20;1.60;;;9.40;99.90;10.30;101904;;;;585227;245;24063;-76
2022/05/09 04:07:27;;;;;;;6.20;1.60;;;10.90;99.90;11.80;101903;;;;572160;250;24116;-77
2022/05/09 04:09:55;;;;;;;2.60;1.87;;;12.40;99.90;12.90;101905;;;;576016;245;24054;-76
2022/05/09 04:12:23;;;;;;;3.57;1.90;;;14.80;99.20;14.10;101909;;;;580374;245;24075;-77
2022/05/09 04:17:38;;;;;;;5.30;2.03;;;15.80;94.50;15.90;101919;;;;575566;245;24109;-77
2022/05/09 04:20:08;;;;;;;5.57;2.27;;;16.90;89.20;16.80;101920;;;;584650;245;24141;-77
2022/05/09 04:22:34;;;;;;;2.03;1.70;;;17.80;81.00;17.40;101922;;;;575526;245;24073;-76
2022/05/09 04:25:02;;;;;;;3.20;1.87;;;18.50;74.90;18.10;101925;;;;574890;249;24115;-76
2022/05/09 04:27:32;;;;;;;3.90;1.40;;;19.20;70.10;18.60;101923;;;;584199;243;24071;-76
2022/05/09 04:30:00;;;;;;;2.57;1.20;;;19.80;66.30;19.30;101930;;;;565818;250;24134;-78
2022/05/09 04:32:26;;;;;;;1.10;0.80;;;20.40;62.60;19.60;101937;;;;573714;245;24103;-77
2022/05/09 04:34:54;;;;;;;4.63;1.30;;;21.40;58.50;20.00;101942;;;;574488;249;24119;-77
2022/05/09 04:37:22;;;;;;;4.60;1.20;;;21.30;58.40;20.60;101939;;;;575528;245;24056;-76
2022/05/09 04:39:50;;;;;;;4.80;1.30;;;21.90;57.30;21.10;101952;;;;565933;250;23154;-77
2022/05/09 04:42:18;;;;;;;6.63;1.27;;;22.40;55.90;21.80;101947;;;;584372;245;24063;-77
2022/05/09 04:44:46;;;;;;;1.77;0.90;;;23.00;54.00;21.60;101953;;;;574571;249;24142;-76
2022/05/09 04:47:14;;;;;;;2.13;1.13;;;23.30;53.10;21.80;101964;;;;584041;244;24129;-76
2022/05/09 04:49:42;;;;;;;4.40;0.97;;;23.40;52.20;22.30;101968;;;;574571;249;24093;-76
2022/05/09 04:52:10;;;;;;;2.03;1.20;;;23.70;51.80;22.80;101967;;;;584165;245;24051;-77
2022/05/09 04:54:38;;;;;;;4.27;1.03;;;24.20;51.00;23.40;101961;;;;565907;250;24107;-78
2022/05/09 04:57:06;;;;;;;1.80;0.80;;;24.80;49.20;23.70;101973;;;;584252;245;24069;-76
2022/05/09 04:59:34;;;;;;;4.70;1.30;;;25.10;48.70;24.10;101970;;;;574633;249;23067;-76
2022/05/09 05:02:01;;;;;;;3.40;0.97;;;25.50;48.10;24.20;101974;;;;585202;244;23074;-77
2022/05/09 05:04:29;;;;;;;5.90;1.33;;;25.60;46.50;23.90;101979;;;;575589;248;24049;-76
2022/05/09 05:06:57;;;;;;;2.83;1.10;;;25.50;46.10;24.10;101976;;;;585185;245;24146;-78
2022/05/09 05:09:26;;;;;;;2.50;1.30;;;25.50;46.10;24.10;101969;;;;575312;249;23076;-77
2022/05/09 05:11:54;;;;;;;2.73;1.10;;;25.70;43.70;24.40;101984;;;;584819;245;24067;-76
2022/05/09 05:14:22;;;;;;;7.07;1.00;;;25.70;43.70;23.90;101985;;;;575396;249;24058;-76
2022/05/09 05:17:02;;;;;;;3.90;1.30;;;25.40;43.10;24.10;101989;;;;585170;245;24113;-76
2022/05/09 05:19:33;;;;;;;2.73;1.07;;;25.50;42.50;24.10;101987;;;;575538;249;24089;-83
2022/05/09 05:21:58;;;;;;;4.90;0.97;;;25.50;42.10;24.60;101987;;;;580264;245;24096;-81
2022/05/09 05:24:25;;;;;;;3.70;1.30;;;25.80;42.90;24.90;101984;;;;575048;250;24074;-84
2022/05/09 05:26:54;;;;;;;2.40;1.10;;;26.00;42.00;25.30;102000;;;;584905;245;23079;-76
2022/05/09 05:29:21;;;;;;;3.23;1.20;;;26.30;41.30;25.50;101990;;;;575311;249;24052;-83
2022/05/09 05:31:49;;;;;;;2.27;1.33;;;26.60;41.10;25.60;101994;;;;585327;245;23103;-83
2022/05/09 05:34:18;;;;;;;2.30;1.23;;;26.60;40.80;25.40;101994;;;;585372;245;23090;-83
2022/05/09 05:36:50;;;;;;;4.10;1.03;;;26.90;41.20;26.00;101988;;;;575306;249;23081;-82
2022/05/09 05:39:15;;;;;;;3.20;1.10;;;27.80;38.60;27.00;101994;;;;575891;245;24051;-83
2022/05/09 05:41:43;;;;;;;3.10;0.97;;;27.70;38.30;27.40;102000;;;;574872;249;24111;-78
2022/05/09 05:44:14;;;;;;;2.97;1.20;;;28.40;37.20;27.90;102000;;;;585159;245;23069;-78
2022/05/09 05:46:42;;;;;;;3.67;1.23;;;28.90;36.30;27.80;102005;;;;575369;249;24060;-77
2022/05/09 05:49:11;;;;;;;2.83;1.00;;;28.90;35.70;27.70;102012;;;;585353;244;23081;-80
2022/05/09 05:51:38;;;;;;;1.37;0.90;;;28.80;35.60;26.50;102005;;;;574923;249;23075;-78
2022/05/09 05:54:06;;;;;;;6.90;1.20;;;28.30;35.80;26.60;102006;;;;584518;245;23067;-78
2022/05/09 05:56:37;;;;;;;1.40;1.00;;;28.00;36.30;26.60;102010;;;;575601;245;23125;-79
2022/05/09 05:59:02;;;;;;;7.57;1.00;;;27.90;36.00;26.80;102009;;;;575153;250;24170;-77
2022/05/09 06:01:33;;;;;;;3.23;0.67;;;28.10;36.50;27.60;102021;;;;584413;243;23097;-77
2022/05/09 06:03:58;;;;;;;4.10;1.00;;;28.50;34.50;27.50;102017;;;;575223;245;23123;-76
2022/05/09 06:06:27;;;;;;;1.90;1.03;;;28.70;34.70;27.70;102025;;;;584452;245;23116;-76
2022/05/09 06:08:55;;;;;;;1.10;0.70;;;28.70;34.60;27.80;102022;;;;574770;249;24129;-80
2022/05/09 06:11:23;;;;;;;1.70;0.80;;;28.80;33.70;28.50;102016;;;;584243;243;24065;-79
2022/05/09 06:13:50;;;;;;;3.13;1.07;;;29.30;32.90;29.00;102029;;;;576032;248;23077;-78
2022/05/09 06:16:18;;;;;;;1.87;0.98;;;29.80;32.30;29.20;102021;;;;585945;245;23129;-78
2022/05/09 06:18:51;;;;;;;2.42;1.02;;;30.10;32.00;30.10;102025;;;;562544;249;23069;-79
2022/05/09 06:21:14;;;;;;;1.27;0.88;;;30.80;32.10;30.60;102023;;;;585210;245;23067;-78
2022/05/09 06:23:42;;;;;;;1.87;0.85;;;31.40;30.80;29.70;102024;;;;575535;249;23065;-80
2022/05/09 06:26:14;;;;;;;3.42;0.80;;;31.20;30.20;29.70;102018;;;;585496;243;24078;-84
2022/05/09 06:28:38;;;;;;;4.87;0.98;;;30.90;31.10;30.90;102027;;;;575080;245;24111;-82
2022/05/09 06:31:07;;;;;;;3.12;0.70;;;32.30;29.60;31.50;102017;;;;585272;245;23077;-82
2022/05/09 06:33:35;;;;;;;3.00;0.90;;;32.70;29.30;31.80;102020;;;;575386;249;24118;-81
2022/05/09 06:36:03;;;;;;;2.25;0.65;;;32.60;29.20;32.50;102024;;;;576292;245;23068;-82
2022/05/09 06:38:35;;;;;;;4.47;1.02;;;33.20;29.10;33.10;102023;;;;575435;249;23077;-81
2022/05/09 06:41:00;;;;;;;1.17;1.08;;;33.80;29.10;33.50;102028;;;;575977;245;23111;-79
2022/05/09 06:43:30;;;;;;;2.17;1.00;;;34.30;29.10;34.10;102027;;;;575334;250;23134;-78
2022/05/09 06:45:55;;;;;;;3.05;0.80;;;34.80;28.70;34.70;102034;;;;576090;245;24111;-80
2022/05/09 06:48:23;;;;;;;0.60;0.60;;;35.40;28.30;35.20;102034;;;;585087;245;23179;-78
2022/05/09 06:50:55;;;;;;;4.57;1.00;;;35.80;28.30;35.90;102033;;;;584537;244;24126;-78
2022/05/09 06:53:19;;;;;;;1.52;1.10;;;36.40;28.30;36.60;102052;;;;573492;243;23128;-79
2022/05/09 06:55:47;;;;;;;3.95;1.25;;;37.00;28.20;37.00;102052;;;;584544;245;23084;-80
2022/05/09 06:58:16;;;;;;;3.92;1.00;;;37.50;27.90;37.40;102047;;;;575942;245;23079;-79
2022/05/09 07:00:44;;;;;;;1.48;1.02;;;37.90;27.80;37.80;102053;;;;580500;245;23093;-78
2022/05/09 07:03:12;;;;;;;2.67;1.10;;;38.40;27.40;38.00;102056;;;;575277;249;23076;-80
2022/05/09 07:05:43;;;;;;;2.10;1.10;;;38.90;26.90;38.20;102050;;;;584650;245;23092;-78
2022/05/09 07:08:09;;;;;;;2.45;0.80;;;38.90;26.90;38.70;102048;;;;565959;250;23102;-79
2022/05/09 07:10:35;;;;;;;2.05;1.50;;;39.40;26.80;39.30;102053;;;;575643;245;23079;-81
2022/05/09 07:13:04;;;;;;;1.40;1.20;;;39.80;26.70;39.30;102057;;;;584472;245;23084;-81
2022/05/09 07:15:34;;;;;;;1.02;0.98;;;40.00;26.50;39.40;102059;;;;584772;245;23092;-81
2022/05/09 07:18:02;;;;;;;2.25;1.17;;;40.20;26.50;39.00;102050;;;;575872;245;23075;-79
2022/05/09 07:20:30;;;;;;;1.23;1.12;;;40.00;26.40;38.60;102057;;;;575120;249;23129;-78
2022/05/09 07:22:57;;;;;;;0.75;0.75;;;39.60;26.50;38.40;102054;;;;580398;245;23072;-79
2022/05/09 07:25:25;;;;;;;2.10;1.12;;;39.30;27.00;38.70;102060;;;;586468;241;23084;-80
2022/05/09 07:27:54;;;;;;;4.65;1.90;;;39.40;26.90;39.20;102063;;;;576848;249;23139;-82
2022/05/09 07:30:25;;;;;;;2.55;1.30;;;39.70;26.60;39.20;102069;;;;586400;242;24082;-82
2022/05/09 07:32:49;;;;;;;4.43;1.15;;;40.00;26.20;39.20;102064;;;;575257;245;23075;-81
2022/05/09 07:35:17;;;;;;;2.75;1.17;;;40.00;26.10;39.30;102059;;;;585984;245;23107;-83
2022/05/09 07:37:46;;;;;;;3.72;0.85;;;40.00;26.00;39.50;102060;;;;586408;245;23091;-79
2022/05/09 07:40:16;;;;;;;1.45;1.20;;;40.20;26.50;39.60;102062;;;;576502;249;23087;-82
2022/05/09 07:42:40;;;;;;;1.05;1.02;;;40.30;25.60;39.50;102063;;;;576913;245;23104;-83
2022/05/09 07:45:08;;;;;;;2.83;1.25;;;40.30;25.60;39.30;102069;;;;567377;250;23107;-79
2022/05/09 07:47:36;;;;;;;1.08;0.90;;;40.20;25.70;38.90;102067;;;;581465;245;23068;-78
2022/05/09 07:50:05;;;;;;;1.77;1.08;;;40.10;25.80;39.50;102062;;;;585316;244;23142;-81
2022/05/09 07:52:33;;;;;;;3.90;1.10;;;40.20;25.80;40.10;102068;;;;575808;249;23145;-84
2022/05/09 07:55:04;;;;;;;1.23;0.82;;;40.70;25.70;40.20;102068;;;;585536;243;24105;-81
2022/05/09 07:57:32;;;;;;;2.97;1.10;;;40.80;25.40;40.10;102067;;;;575465;250;23126;-83
2022/05/09 08:00:00;;;;;;;3.80;1.23;;;40.90;24.90;40.00;102062;;;;575758;245;24188;-79
2022/05/09 08:02:28;;;;;;;2.53;0.90;;;40.80;25.30;40.70;102059;;;;561896;250;23070;-80
2022/05/09 08:04:56;;;;;;;2.47;1.10;;;41.30;24.60;41.00;102062;;;;584452;243;23072;-77
2022/05/09 08:07:26;;;;;;;1.35;1.23;;;41.60;24.80;41.10;102064;;;;584451;245;23064;-80
2022/05/09 08:09:52;;;;;;;5.35;1.55;;;41.80;24.20;40.70;102064;;;;579639;245;23088;-78
2022/05/09 08:12:19;;;;;;;0.80;0.80;;;41.70;24.40;39.90;102064;;;;574528;248;23086;-80
2022/05/09 08:14:49;;;;;;;5.43;1.40;;;40.70;24.60;39.20;102059;;;;584664;245;23083;-79
2022/05/09 08:17:16;;;;;;;1.90;1.10;;;40.60;24.50;39.20;102066;;;;584661;243;23130;-83
2022/05/09 08:19:45;;;;;;;3.62;1.00;;;40.40;24.90;39.20;102064;;;;585261;245;23087;-83
2022/05/09 08:22:12;;;;;;;2.67;1.12;;;40.20;25.00;38.90;102078;;;;575589;249;23154;-77
2022/05/09 08:24:43;;;;;;;5.68;1.30;;;40.20;24.90;38.20;102078;;;;585211;243;23157;-78
2022/05/09 08:27:08;;;;;;;4.43;1.60;;;39.70;25.30;38.70;102066;;;;574508;245;23079;-78
2022/05/09 08:29:36;;;;;;;6.93;1.40;;;39.70;25.50;38.80;102073;;;;575784;248;23099;-78
2022/05/09 08:32:08;;;;;;;2.72;1.10;;;39.80;25.20;38.60;102070;;;;585708;245;23079;-81
2022/05/09 08:34:32;;;;;;;6.72;1.35;;;39.70;25.50;38.80;102074;;;;575204;249;23107;-79
2022/05/09 08:37:06;;;;;;;2.53;1.30;;;39.80;25.30;38.80;102073;;;;585894;244;23071;-85
2022/05/09 08:39:32;;;;;;;1.65;1.23;;;39.90;25.50;38.90;102074;;;;567403;249;23112;-82
2022/05/09 08:42:01;;;;;;;6.05;2.87;;;40.00;25.20;38.30;102076;;;;585510;245;24125;-81
2022/05/09 08:45:06;;;;;;;4.65;1.45;;;39.90;25.20;38.10;102085;;;;567111;249;23095;-77
2022/05/09 08:47:57;;;;;;;5.70;2.15;;;39.60;25.40;38.20;102087;;;;575935;245;23063;-77
2022/05/09 08:50:40;;;;;;;4.53;2.28;;;39.50;25.20;38.80;102083;;;;567025;250;23105;-79
2022/05/09 08:53:19;;;;;;;1.55;1.33;;;39.70;25.20;39.40;102086;;;;584764;243;23172;-79
2022/05/09 08:55:49;;;;;;;5.78;2.30;;;40.50;24.60;38.70;102083;;;;574557;245;24070;-79
2022/05/09 08:58:37;;;;;;;1.73;1.50;;;40.50;24.60;37.90;102079;;;;576254;245;23090;-78
2022/05/09 09:01:03;;;;;;;1.67;1.52;;;39.90;24.90;38.20;102088;;;;585308;245;24097;-80
2022/05/09 09:03:29;;;;;;;4.75;1.60;;;39.80;25.30;37.70;102086;;;;575926;245;23157;-79
2022/05/09 09:06:06;;;;;;;3.50;1.58;;;39.60;25.20;37.40;102083;;;;566758;250;23084;-80
2022/05/09 09:08:52;;;;;;;2.55;1.23;;;39.30;25.20;37.00;102084;;;;579666;244;23150;-83
2022/05/09 09:11:26;;;;;;;2.67;1.20;;;39.00;25.20;36.60;102093;;;;566770;250;24135;-78
2022/05/09 09:14:02;;;;;;;3.50;1.48;;;38.70;25.20;35.90;102082;;;;575927;245;23119;-80
2022/05/09 09:16:48;;;;;;;3.85;1.55;;;37.60;25.70;35.60;102081;;;;585356;245;23063;-77
2022/05/09 09:19:54;;;;;;;5.82;1.30;;;37.50;26.50;35.80;102076;;;;580359;244;23080;-82
2022/05/09 09:22:25;;;;;;;4.68;1.70;;;37.50;26.00;35.20;102076;;;;563403;250;24165;-83
2022/05/09 09:25:14;;;;;;;4.22;1.60;;;37.20;26.00;35.20;102082;;;;584488;245;23135;-81
2022/05/09 09:27:44;;;;;;;7.72;1.35;;;37.10;26.20;35.00;102075;;;;566110;250;24138;-81
2022/05/09 09:30:13;;;;;;;5.03;1.48;;;36.80;26.30;35.50;102072;;;;575564;245;23128;-81
2022/05/09 09:32:40;;;;;;;7.12;1.70;;;37.10;26.30;35.60;102073;;;;552133;256;23154;-82
2022/05/09 09:35:31;;;;;;;2.15;1.40;;;37.30;26.30;35.80;102079;;;;574328;245;23094;-80
2022/05/09 09:38:03;;;;;;;6.07;1.95;;;37.50;26.10;35.00;102075;;;;565900;250;24108;-82
2022/05/09 09:40:31;;;;;;;8.43;1.52;;;36.80;26.50;34.80;102072;;;;578970;245;24191;-79
2022/05/09 09:42:59;;;;;;;4.72;1.50;;;36.80;26.50;34.50;102067;;;;561377;250;23085;-80
2022/05/09 09:45:33;;;;;;;5.12;1.55;;;36.60;26.90;33.60;102068;;;;579397;245;35077;-79
2022/05/09 09:48:20;;;;;;;2.42;1.30;;;35.60;26.60;33.10;102071;;;;566849;249;23152;-80
2022/05/09 09:51:00;;;;;;;4.55;1.25;;;35.60;26.50;33.10;102070;;;;583841;244;23084;-81
2022/05/09 09:53:34;;;;;;;3.65;1.35;;;35.40;26.60;32.10;102055;;;;574280;249;23127;-78
2022/05/09 09:56:07;;;;;;;1.90;0.80;;;34.80;27.30;31.70;102063;;;;576138;245;23086;-77
2022/05/09 09:58:38;;;;;;;2.90;1.15;;;34.20;27.10;32.30;102062;;;;566236;250;23094;-80
2022/05/09 10:01:05;;;;;;;5.07;1.10;;;34.20;27.40;32.30;102058;;;;575655;245;23090;-81
2022/05/09 10:03:34;;;;;;;2.50;1.00;;;34.40;27.50;32.40;102058;;;;575664;245;23129;-79
2022/05/09 10:06:02;;;;;;;4.57;1.37;;;34.40;27.50;33.20;102057;;;;560768;253;23172;-78
2022/05/09 10:08:34;;;;;;;2.50;0.88;;;35.40;26.60;33.50;102057;;;;575452;245;23088;-82
2022/05/09 10:11:08;;;;;;;5.47;1.80;;;35.30;26.50;33.20;102048;;;;566172;250;23091;-80
2022/05/09 10:13:36;;;;;;;6.35;1.65;;;35.40;26.80;33.40;102051;;;;584389;243;23106;-82
2022/05/09 10:16:05;;;;;;;4.32;0.98;;;35.20;26.20;32.90;102048;;;;584668;245;23103;-81
2022/05/09 10:18:36;;;;;;;5.85;1.30;;;35.10;26.10;31.70;102058;;;;566457;250;23084;-79
2022/05/09 10:21:01;;;;;;;5.90;1.10;;;34.10;26.70;30.90;102055;;;;573892;245;23093;-81
2022/05/09 10:26:14;;;;;;;2.97;1.55;;;32.50;27.00;29.80;102051;;;;580020;245;35075;-81
2022/05/09 10:28:45;;;;;;;2.75;1.30;;;32.00;27.40;28.90;102053;;;;566286;250;24091;-81
2022/05/09 10:31:14;;;;;;;3.08;1.08;;;30.30;28.80;28.10;102039;;;;575813;245;28378;-80
2022/05/09 10:33:59;;;;;;;4.03;1.20;;;30.20;28.20;27.10;102039;;;;565754;250;23076;-78
2022/05/09 10:36:35;;;;;;;8.07;1.93;;;29.10;28.60;25.30;102036;;;;575629;245;24196;-81
2022/05/09 10:39:12;;;;;;;2.73;1.20;;;27.60;29.60;23.90;102027;;;;573690;245;23085;-81
2022/05/09 10:41:49;;;;;;;4.10;1.50;;;25.90;30.20;22.90;102026;;;;577768;245;23076;-82
2022/05/09 10:44:20;;;;;;;2.37;1.33;;;24.60;30.80;21.70;102017;;;;566606;251;24186;-80
2022/05/09 10:46:50;;;;;;;1.90;1.67;;;23.20;33.00;20.80;102024;;;;580751;245;24099;-82
2022/05/09 10:49:31;;;;;;;3.53;1.20;;;21.90;35.70;20.20;102017;;;;566130;250;24114;-82
2022/05/09 10:52:04;;;;;;;1.67;1.30;;;21.00;36.20;19.50;102022;;;;575074;245;24082;-81
2022/05/09 10:54:40;;;;;;;2.40;1.50;;;20.30;37.90;18.70;102019;;;;565667;250;24110;-81
2022/05/09 10:57:45;;;;;;;1.43;1.23;;;19.50;38.50;18.30;102006;;;;584208;242;24080;-80
2022/05/09 11:00:10;;;;;;;6.60;1.07;;;19.00;39.30;17.60;102010;;;;566671;249;24116;-81
2022/05/09 11:02:47;;;;;;;9.37;2.43;;;18.40;38.90;17.30;101996;;;;580588;245;24073;-78
2022/05/09 11:05:14;;;;;;;8.90;1.20;;;18.00;39.60;16.90;101995;;;;566379;249;24175;-78
2022/05/09 11:07:57;;;;;;;2.83;1.03;;;17.60;41.20;16.60;101992;;;;575758;245;24092;-79
2022/05/09 11:10:41;;;;;;;1.07;0.80;;;17.30;42.70;16.40;101993;;;;584954;243;24100;-77
2022/05/09 11:13:27;;;;;;;4.50;1.20;;;17.00;42.20;16.10;101996;;;;575595;245;24075;-77
2022/05/09 11:16:04;;;;;;;0.70;0.70;;;16.70;41.60;15.90;101987;;;;566327;249;24113;-80
2022/05/09 11:18:49;;;;;;;1.27;1.00;;;16.50;42.80;15.60;101985;;;;575718;245;24132;-78
2022/05/09 11:21:29;;;;;;;2.57;1.27;;;16.30;42.90;15.30;101985;;;;582491;245;24073;-79
2022/05/09 11:24:40;;;;;;;2.83;1.47;;;16.00;43.70;15.10;101974;;;;584460;243;24100;-81
2022/05/09 11:27:35;;;;;;;3.10;0.73;;;15.80;44.20;15.00;101980;;;;574962;249;24083;-81
2022/05/09 11:30:15;;;;;;;1.70;1.23;;;15.50;43.30;14.80;101967;;;;580327;243;24059;-78
2022/05/09 11:32:47;;;;;;;1.73;0.90;;;15.50;43.30;14.70;101968;;;;566480;250;24083;-77
2022/05/09 11:35:35;;;;;;;7.73;0.93;;;15.40;44.40;14.60;101962;;;;584419;245;24215;-77
2022/05/09 11:38:08;;;;;;;2.67;0.90;;;15.30;45.80;14.80;101972;;;;566154;250;24128;-77
2022/05/09 11:41:01;;;;;;;0.80;0.80;;;15.40;45.80;14.80;101965;;;;584411;245;24119;-78